sensor_id;sensor_type;location;lat;lon;timestamp;P1;durP1;ratioP1;P2;durP2;ratioP2
61096;SDS011;46977;50.936;6.908;2022-10-22T00:00:04;6.68;;;4.43;;
61096;SDS011;46977;50.936;6.908;2022-10-22T00:03:08;7.57;;;3.83;;
61096;SDS011;46977;50.936;6.908;2022-10-22T00:06:10;5.53;;;3.90;;
61096;SDS011;46977;50.936;6.908;2022-10-22T00:09:13;7.25;;;4.25;;
61096;SDS011;46977;50.936;6.908;2022-10-22T00:12:17;6.13;;;3.95;;
61096;SDS011;46977;50.936;6.908;2022-10-22T00:15:19;9.00;;;4.68;;
61096;SDS011;46977;50.936;6.908;2022-10-22T00:18:22;8.23;;;4.50;;
61096;SDS011;46977;50.936;6.908;2022-10-22T00:21:24;10.75;;;5.60;;
61096;SDS011;46977;50.936;6.908;2022-10-22T00:24:29;7.60;;;4.35;;
61096;SDS011;46977;50.936;6.908;2022-10-22T00:27:33;7.63;;;4.80;;
61096;SDS011;46977;50.936;6.908;2022-10-22T00:30:36;7.40;;;4.15;;
61096;SDS011;46977;50.936;6.908;2022-10-22T00:33:38;6.97;;;4.38;;
61096;SDS011;46977;50.936;6.908;2022-10-22T00:36:41;11.40;;;5.30;;
61096;SDS011;46977;50.936;6.908;2022-10-22T00:39:43;10.73;;;4.60;;
61096;SDS011;46977;50.936;6.908;2022-10-22T00:42:47;8.68;;;4.50;;
61096;SDS011;46977;50.936;6.908;2022-10-22T00:45:49;11.40;;;4.75;;
61096;SDS011;46977;50.936;6.908;2022-10-22T00:48:51;12.68;;;4.60;;
61096;SDS011;46977;50.936;6.908;2022-10-22T00:51:54;8.40;;;4.40;;
61096;SDS011;46977;50.936;6.908;2022-10-22T00:54:56;6.28;;;4.50;;
61096;SDS011;46977;50.936;6.908;2022-10-22T00:58:00;9.77;;;3.88;;
61096;SDS011;46977;50.936;6.908;2022-10-22T01:01:03;10.02;;;4.63;;
61096;SDS011;46977;50.936;6.908;2022-10-22T01:04:06;7.85;;;4.75;;
61096;SDS011;46977;50.936;6.908;2022-10-22T01:07:10;10.38;;;4.85;;
61096;SDS011;46977;50.936;6.908;2022-10-22T01:10:19;11.10;;;4.20;;
61096;SDS011;46977;50.936;6.908;2022-10-22T01:13:34;7.78;;;4.05;;
61096;SDS011;46977;50.936;6.908;2022-10-22T01:16:41;8.27;;;5.07;;
61096;SDS011;46977;50.936;6.908;2022-10-22T01:19:59;5.95;;;4.00;;
61096;SDS011;46977;50.936;6.908;2022-10-22T01:23:10;8.27;;;4.22;;
61096;SDS011;46977;50.936;6.908;2022-10-22T01:26:24;9.23;;;5.28;;
61096;SDS011;46977;50.936;6.908;2022-10-22T01:29:32;11.85;;;4.70;;
61096;SDS011;46977;50.936;6.908;2022-10-22T01:32:37;9.00;;;4.22;;
61096;SDS011;46977;50.936;6.908;2022-10-22T01:35:44;7.15;;;3.85;;
61096;SDS011;46977;50.936;6.908;2022-10-22T01:38:46;7.50;;;3.88;;
61096;SDS011;46977;50.936;6.908;2022-10-22T01:41:52;8.90;;;4.30;;
61096;SDS011;46977;50.936;6.908;2022-10-22T01:44:57;8.30;;;4.20;;
61096;SDS011;46977;50.936;6.908;2022-10-22T01:48:02;9.60;;;3.88;;
61096;SDS011;46977;50.936;6.908;2022-10-22T01:51:16;5.70;;;4.13;;
61096;SDS011;46977;50.936;6.908;2022-10-22T01:54:46;7.70;;;4.25;;
61096;SDS011;46977;50.936;6.908;2022-10-22T01:57:55;9.07;;;4.60;;
61096;SDS011;46977;50.936;6.908;2022-10-22T02:01:05;6.88;;;4.40;;
61096;SDS011;46977;50.936;6.908;2022-10-22T02:04:10;10.88;;;4.80;;
61096;SDS011;46977;50.936;6.908;2022-10-22T02:07:17;7.75;;;4.90;;
61096;SDS011;46977;50.936;6.908;2022-10-22T02:10:20;8.70;;;4.53;;
61096;SDS011;46977;50.936;6.908;2022-10-22T02:13:24;8.57;;;4.55;;
61096;SDS011;46977;50.936;6.908;2022-10-22T02:16:31;10.18;;;4.70;;
61096;SDS011;46977;50.936;6.908;2022-10-22T02:19:36;9.10;;;5.47;;
61096;SDS011;46977;50.936;6.908;2022-10-22T02:22:41;11.05;;;5.45;;
61096;SDS011;46977;50.936;6.908;2022-10-22T02:25:44;8.13;;;4.50;;
61096;SDS011;46977;50.936;6.908;2022-10-22T02:28:51;12.80;;;4.63;;
61096;SDS011;46977;50.936;6.908;2022-10-22T02:32:00;10.93;;;4.82;;
61096;SDS011;46977;50.936;6.908;2022-10-22T02:35:05;9.32;;;5.55;;
61096;SDS011;46977;50.936;6.908;2022-10-22T02:38:08;7.50;;;4.60;;
61096;SDS011;46977;50.936;6.908;2022-10-22T02:41:11;8.80;;;4.32;;
61096;SDS011;46977;50.936;6.908;2022-10-22T02:44:14;8.90;;;4.32;;
61096;SDS011;46977;50.936;6.908;2022-10-22T02:47:18;6.55;;;4.50;;
61096;SDS011;46977;50.936;6.908;2022-10-22T02:50:20;5.90;;;3.90;;
61096;SDS011;46977;50.936;6.908;2022-10-22T02:53:23;6.90;;;4.53;;
61096;SDS011;46977;50.936;6.908;2022-10-22T02:56:25;6.88;;;4.50;;
61096;SDS011;46977;50.936;6.908;2022-10-22T02:59:27;6.50;;;4.13;;
61096;SDS011;46977;50.936;6.908;2022-10-22T03:02:31;9.98;;;4.53;;
61096;SDS011;46977;50.936;6.908;2022-10-22T03:05:33;7.28;;;4.78;;
61096;SDS011;46977;50.936;6.908;2022-10-22T03:08:36;9.98;;;4.93;;
61096;SDS011;46977;50.936;6.908;2022-10-22T03:11:38;8.73;;;4.95;;
61096;SDS011;46977;50.936;6.908;2022-10-22T03:14:40;6.68;;;4.47;;
61096;SDS011;46977;50.936;6.908;2022-10-22T03:17:44;10.38;;;5.30;;
61096;SDS011;46977;50.936;6.908;2022-10-22T03:20:46;8.88;;;5.55;;
61096;SDS011;46977;50.936;6.908;2022-10-22T03:23:48;8.57;;;4.70;;
61096;SDS011;46977;50.936;6.908;2022-10-22T03:26:51;9.20;;;5.10;;
61096;SDS011;46977;50.936;6.908;2022-10-22T03:29:53;10.38;;;5.07;;
61096;SDS011;46977;50.936;6.908;2022-10-22T03:32:58;8.27;;;4.78;;
61096;SDS011;46977;50.936;6.908;2022-10-22T03:36:02;9.40;;;5.55;;
61096;SDS011;46977;50.936;6.908;2022-10-22T03:39:05;12.38;;;4.95;;
61096;SDS011;46977;50.936;6.908;2022-10-22T03:43:14;13.98;;;5.38;;
61096;SDS011;46977;50.936;6.908;2022-10-22T03:53:28;10.52;;;4.93;;
61096;SDS011;46977;50.936;6.908;2022-10-22T03:56:56;7.85;;;4.93;;
61096;SDS011;46977;50.936;6.908;2022-10-22T04:00:53;10.93;;;5.60;;
61096;SDS011;46977;50.936;6.908;2022-10-22T04:09:14;10.35;;;6.30;;
61096;SDS011;46977;50.936;6.908;2022-10-22T04:27:22;9.65;;;5.85;;
61096;SDS011;46977;50.936;6.908;2022-10-22T04:35:37;9.95;;;5.72;;
61096;SDS011;46977;50.936;6.908;2022-10-22T04:39:37;12.20;;;5.43;;
61096;SDS011;46977;50.936;6.908;2022-10-22T04:47:51;9.23;;;6.13;;
61096;SDS011;46977;50.936;6.908;2022-10-22T04:51:42;8.65;;;6.03;;
61096;SDS011;46977;50.936;6.908;2022-10-22T04:54:44;11.23;;;5.78;;
61096;SDS011;46977;50.936;6.908;2022-10-22T04:58:09;6.80;;;5.32;;
61096;SDS011;46977;50.936;6.908;2022-10-22T05:01:43;10.02;;;5.32;;
61096;SDS011;46977;50.936;6.908;2022-10-22T05:06:39;8.25;;;5.15;;
61096;SDS011;46977;50.936;6.908;2022-10-22T05:15:44;10.85;;;5.90;;
61096;SDS011;46977;50.936;6.908;2022-10-22T05:35:07;7.68;;;5.88;;
61096;SDS011;46977;50.936;6.908;2022-10-22T05:39:25;11.07;;;6.60;;
61096;SDS011;46977;50.936;6.908;2022-10-22T05:48:39;8.45;;;5.15;;
61096;SDS011;46977;50.936;6.908;2022-10-22T05:52:39;11.02;;;5.50;;
61096;SDS011;46977;50.936;6.908;2022-10-22T05:58:31;9.60;;;5.78;;
61096;SDS011;46977;50.936;6.908;2022-10-22T06:05:39;10.55;;;5.85;;
61096;SDS011;46977;50.936;6.908;2022-10-22T06:10:25;10.90;;;5.95;;
61096;SDS011;46977;50.936;6.908;2022-10-22T06:13:44;8.85;;;5.63;;
61096;SDS011;46977;50.936;6.908;2022-10-22T06:16:46;8.20;;;6.03;;
61096;SDS011;46977;50.936;6.908;2022-10-22T06:19:49;7.75;;;5.45;;
61096;SDS011;46977;50.936;6.908;2022-10-22T06:22:53;9.18;;;5.38;;
61096;SDS011;46977;50.936;6.908;2022-10-22T06:25:55;10.23;;;5.22;;
61096;SDS011;46977;50.936;6.908;2022-10-22T06:28:58;9.30;;;4.53;;
61096;SDS011;46977;50.936;6.908;2022-10-22T06:32:00;7.00;;;3.88;;
61096;SDS011;46977;50.936;6.908;2022-10-22T06:35:03;4.57;;;3.40;;
61096;SDS011;46977;50.936;6.908;2022-10-22T06:38:07;6.60;;;3.40;;
61096;SDS011;46977;50.936;6.908;2022-10-22T06:41:10;5.43;;;3.38;;
61096;SDS011;46977;50.936;6.908;2022-10-22T06:44:13;8.32;;;3.88;;
61096;SDS011;46977;50.936;6.908;2022-10-22T06:47:16;6.15;;;3.40;;
61096;SDS011;46977;50.936;6.908;2022-10-22T06:50:18;6.38;;;3.58;;
61096;SDS011;46977;50.936;6.908;2022-10-22T06:53:22;6.47;;;3.83;;
61096;SDS011;46977;50.936;6.908;2022-10-22T06:56:25;5.93;;;3.58;;
61096;SDS011;46977;50.936;6.908;2022-10-22T06:59:29;6.72;;;3.67;;
61096;SDS011;46977;50.936;6.908;2022-10-22T07:02:31;5.22;;;3.22;;
61096;SDS011;46977;50.936;6.908;2022-10-22T07:05:34;8.07;;;3.33;;
61096;SDS011;46977;50.936;6.908;2022-10-22T07:08:38;5.65;;;3.33;;
61096;SDS011;46977;50.936;6.908;2022-10-22T07:11:41;6.55;;;3.60;;
61096;SDS011;46977;50.936;6.908;2022-10-22T07:14:44;6.10;;;3.05;;
61096;SDS011;46977;50.936;6.908;2022-10-22T07:17:46;6.10;;;2.88;;
61096;SDS011;46977;50.936;6.908;2022-10-22T07:20:49;5.30;;;2.53;;
61096;SDS011;46977;50.936;6.908;2022-10-22T07:23:53;5.35;;;2.40;;
61096;SDS011;46977;50.936;6.908;2022-10-22T07:26:55;4.85;;;2.15;;
61096;SDS011;46977;50.936;6.908;2022-10-22T07:29:58;4.10;;;2.20;;
61096;SDS011;46977;50.936;6.908;2022-10-22T07:33:02;6.93;;;1.63;;
61096;SDS011;46977;50.936;6.908;2022-10-22T07:36:05;2.28;;;1.27;;
61096;SDS011;46977;50.936;6.908;2022-10-22T07:39:10;5.15;;;1.88;;
61096;SDS011;46977;50.936;6.908;2022-10-22T07:42:12;7.47;;;1.60;;
61096;SDS011;46977;50.936;6.908;2022-10-22T07:45:14;4.05;;;1.17;;
61096;SDS011;46977;50.936;6.908;2022-10-22T07:48:17;4.95;;;1.40;;
61096;SDS011;46977;50.936;6.908;2022-10-22T07:51:19;3.25;;;1.20;;
61096;SDS011;46977;50.936;6.908;2022-10-22T07:54:23;5.07;;;1.00;;
61096;SDS011;46977;50.936;6.908;2022-10-22T07:57:25;3.13;;;1.00;;
61096;SDS011;46977;50.936;6.908;2022-10-22T08:00:28;5.60;;;1.27;;
61096;SDS011;46977;50.936;6.908;2022-10-22T08:03:30;5.30;;;1.33;;
61096;SDS011;46977;50.936;6.908;2022-10-22T08:06:33;5.00;;;1.77;;
61096;SDS011;46977;50.936;6.908;2022-10-22T08:09:36;4.38;;;2.00;;
61096;SDS011;46977;50.936;6.908;2022-10-22T08:12:39;3.38;;;1.33;;
61096;SDS011;46977;50.936;6.908;2022-10-22T08:15:42;4.95;;;1.55;;
61096;SDS011;46977;50.936;6.908;2022-10-22T08:18:45;9.27;;;2.00;;
61096;SDS011;46977;50.936;6.908;2022-10-22T08:21:48;5.15;;;1.60;;
61096;SDS011;46977;50.936;6.908;2022-10-22T08:24:51;6.15;;;1.90;;
61096;SDS011;46977;50.936;6.908;2022-10-22T08:27:54;4.60;;;1.95;;
61096;SDS011;46977;50.936;6.908;2022-10-22T08:30:56;6.15;;;1.65;;
61096;SDS011;46977;50.936;6.908;2022-10-22T08:33:59;3.88;;;1.70;;
61096;SDS011;46977;50.936;6.908;2022-10-22T08:37:01;10.73;;;2.70;;
61096;SDS011;46977;50.936;6.908;2022-10-22T08:40:05;4.10;;;1.83;;
61096;SDS011;46977;50.936;6.908;2022-10-22T08:46:45;5.78;;;2.03;;
61096;SDS011;46977;50.936;6.908;2022-10-22T08:49:56;4.80;;;2.00;;
61096;SDS011;46977;50.936;6.908;2022-10-22T08:53:04;8.02;;;1.80;;
61096;SDS011;46977;50.936;6.908;2022-10-22T08:56:17;8.45;;;2.33;;
61096;SDS011;46977;50.936;6.908;2022-10-22T08:59:30;5.60;;;2.03;;
61096;SDS011;46977;50.936;6.908;2022-10-22T09:02:39;4.85;;;1.92;;
61096;SDS011;46977;50.936;6.908;2022-10-22T09:05:53;11.70;;;3.15;;
61096;SDS011;46977;50.936;6.908;2022-10-22T09:08:58;6.53;;;2.45;;
61096;SDS011;46977;50.936;6.908;2022-10-22T09:12:04;5.20;;;1.70;;
61096;SDS011;46977;50.936;6.908;2022-10-22T09:15:11;6.20;;;1.40;;
61096;SDS011;46977;50.936;6.908;2022-10-22T09:18:18;8.15;;;1.50;;
61096;SDS011;46977;50.936;6.908;2022-10-22T09:24:32;3.83;;;1.27;;
61096;SDS011;46977;50.936;6.908;2022-10-22T09:27:39;4.32;;;2.45;;
61096;SDS011;46977;50.936;6.908;2022-10-22T09:30:42;3.47;;;1.20;;
61096;SDS011;46977;50.936;6.908;2022-10-22T09:33:45;6.90;;;1.10;;
61096;SDS011;46977;50.936;6.908;2022-10-22T09:36:56;5.57;;;1.58;;
61096;SDS011;46977;50.936;6.908;2022-10-22T09:39:59;8.00;;;1.40;;
61096;SDS011;46977;50.936;6.908;2022-10-22T09:43:08;3.78;;;1.00;;
61096;SDS011;46977;50.936;6.908;2022-10-22T09:46:14;4.80;;;1.15;;
61096;SDS011;46977;50.936;6.908;2022-10-22T09:49:19;7.57;;;1.00;;
61096;SDS011;46977;50.936;6.908;2022-10-22T09:52:26;4.88;;;1.35;;
61096;SDS011;46977;50.936;6.908;2022-10-22T09:55:29;4.95;;;1.23;;
61096;SDS011;46977;50.936;6.908;2022-10-22T09:58:41;4.75;;;1.50;;
61096;SDS011;46977;50.936;6.908;2022-10-22T10:01:44;8.32;;;1.70;;
61096;SDS011;46977;50.936;6.908;2022-10-22T10:04:48;9.10;;;1.63;;
61096;SDS011;46977;50.936;6.908;2022-10-22T10:07:51;7.53;;;1.30;;
61096;SDS011;46977;50.936;6.908;2022-10-22T10:10:55;5.95;;;0.88;;
61096;SDS011;46977;50.936;6.908;2022-10-22T10:14:03;4.03;;;1.10;;
61096;SDS011;46977;50.936;6.908;2022-10-22T10:17:11;5.07;;;1.20;;
61096;SDS011;46977;50.936;6.908;2022-10-22T10:20:21;4.63;;;0.63;;
61096;SDS011;46977;50.936;6.908;2022-10-22T10:23:32;6.97;;;1.17;;
61096;SDS011;46977;50.936;6.908;2022-10-22T10:26:38;1.58;;;0.90;;
61096;SDS011;46977;50.936;6.908;2022-10-22T10:29:46;4.15;;;0.93;;
61096;SDS011;46977;50.936;6.908;2022-10-22T10:32:56;3.33;;;0.73;;
61096;SDS011;46977;50.936;6.908;2022-10-22T10:36:05;7.63;;;1.65;;
61096;SDS011;46977;50.936;6.908;2022-10-22T10:39:14;5.28;;;0.55;;
61096;SDS011;46977;50.936;6.908;2022-10-22T10:42:20;3.38;;;0.80;;
61096;SDS011;46977;50.936;6.908;2022-10-22T10:45:27;2.88;;;0.60;;
61096;SDS011;46977;50.936;6.908;2022-10-22T10:48:44;1.88;;;0.50;;
61096;SDS011;46977;50.936;6.908;2022-10-22T10:51:52;5.30;;;0.95;;
61096;SDS011;46977;50.936;6.908;2022-10-22T10:54:58;3.80;;;0.60;;
61096;SDS011;46977;50.936;6.908;2022-10-22T10:58:09;2.55;;;0.45;;
61096;SDS011;46977;50.936;6.908;2022-10-22T11:01:18;7.35;;;0.60;;
61096;SDS011;46977;50.936;6.908;2022-10-22T11:04:32;5.10;;;0.75;;
61096;SDS011;46977;50.936;6.908;2022-10-22T11:07:44;3.20;;;0.70;;
61096;SDS011;46977;50.936;6.908;2022-10-22T11:10:55;4.85;;;0.95;;
61096;SDS011;46977;50.936;6.908;2022-10-22T11:14:02;2.67;;;0.45;;
61096;SDS011;46977;50.936;6.908;2022-10-22T11:17:10;6.00;;;0.65;;
61096;SDS011;46977;50.936;6.908;2022-10-22T11:20:16;7.97;;;0.50;;
61096;SDS011;46977;50.936;6.908;2022-10-22T11:23:21;5.03;;;0.68;;
61096;SDS011;46977;50.936;6.908;2022-10-22T11:26:29;2.60;;;0.68;;
61096;SDS011;46977;50.936;6.908;2022-10-22T11:29:38;2.92;;;0.50;;
61096;SDS011;46977;50.936;6.908;2022-10-22T11:32:44;2.22;;;0.40;;
61096;SDS011;46977;50.936;6.908;2022-10-22T11:35:48;4.65;;;0.68;;
61096;SDS011;46977;50.936;6.908;2022-10-22T11:38:51;4.28;;;0.50;;
61096;SDS011;46977;50.936;6.908;2022-10-22T11:41:53;1.52;;;0.43;;
61096;SDS011;46977;50.936;6.908;2022-10-22T11:44:57;2.25;;;0.57;;
61096;SDS011;46977;50.936;6.908;2022-10-22T11:48:06;4.82;;;0.50;;
61096;SDS011;46977;50.936;6.908;2022-10-22T11:51:28;2.88;;;0.60;;
61096;SDS011;46977;50.936;6.908;2022-10-22T11:54:38;4.95;;;0.70;;
61096;SDS011;46977;50.936;6.908;2022-10-22T11:57:43;8.18;;;0.98;;
61096;SDS011;46977;50.936;6.908;2022-10-22T12:00:46;3.22;;;0.88;;
61096;SDS011;46977;50.936;6.908;2022-10-22T12:03:51;10.93;;;5.47;;
61096;SDS011;46977;50.936;6.908;2022-10-22T12:06:57;3.47;;;1.25;;
61096;SDS011;46977;50.936;6.908;2022-10-22T12:10:03;6.75;;;1.00;;
61096;SDS011;46977;50.936;6.908;2022-10-22T12:13:10;1.25;;;0.30;;
61096;SDS011;46977;50.936;6.908;2022-10-22T12:16:13;3.20;;;0.40;;
61096;SDS011;46977;50.936;6.908;2022-10-22T12:19:29;2.92;;;0.60;;
61096;SDS011;46977;50.936;6.908;2022-10-22T12:22:33;2.25;;;0.30;;
61096;SDS011;46977;50.936;6.908;2022-10-22T12:25:39;6.32;;;0.40;;
61096;SDS011;46977;50.936;6.908;2022-10-22T12:28:42;3.25;;;0.40;;
61096;SDS011;46977;50.936;6.908;2022-10-22T12:31:45;3.72;;;1.05;;
61096;SDS011;46977;50.936;6.908;2022-10-22T12:34:50;2.60;;;0.45;;
61096;SDS011;46977;50.936;6.908;2022-10-22T12:37:53;2.35;;;0.40;;
61096;SDS011;46977;50.936;6.908;2022-10-22T12:40:57;2.40;;;0.70;;
61096;SDS011;46977;50.936;6.908;2022-10-22T12:43:59;1.30;;;0.40;;
61096;SDS011;46977;50.936;6.908;2022-10-22T12:47:02;5.20;;;0.60;;
61096;SDS011;46977;50.936;6.908;2022-10-22T12:50:06;3.38;;;0.40;;
61096;SDS011;46977;50.936;6.908;2022-10-22T12:53:11;6.03;;;1.48;;
61096;SDS011;46977;50.936;6.908;2022-10-22T12:56:17;6.90;;;1.70;;
61096;SDS011;46977;50.936;6.908;2022-10-22T12:59:23;9.75;;;1.63;;
61096;SDS011;46977;50.936;6.908;2022-10-22T13:02:27;6.60;;;1.63;;
61096;SDS011;46977;50.936;6.908;2022-10-22T13:05:31;2.67;;;0.50;;
61096;SDS011;46977;50.936;6.908;2022-10-22T13:08:39;3.80;;;0.88;;
61096;SDS011;46977;50.936;6.908;2022-10-22T13:11:47;1.85;;;0.38;;
61096;SDS011;46977;50.936;6.908;2022-10-22T13:14:50;5.20;;;0.43;;
61096;SDS011;46977;50.936;6.908;2022-10-22T13:18:00;3.50;;;0.50;;
61096;SDS011;46977;50.936;6.908;2022-10-22T13:21:05;4.05;;;0.40;;
61096;SDS011;46977;50.936;6.908;2022-10-22T13:24:18;2.63;;;0.50;;
61096;SDS011;46977;50.936;6.908;2022-10-22T13:27:21;6.80;;;0.45;;
61096;SDS011;46977;50.936;6.908;2022-10-22T13:30:25;2.47;;;0.40;;
61096;SDS011;46977;50.936;6.908;2022-10-22T13:33:29;2.42;;;0.65;;
61096;SDS011;46977;50.936;6.908;2022-10-22T13:36:36;3.33;;;0.50;;
61096;SDS011;46977;50.936;6.908;2022-10-22T13:39:38;2.78;;;0.60;;
61096;SDS011;46977;50.936;6.908;2022-10-22T13:42:40;2.78;;;0.40;;
61096;SDS011;46977;50.936;6.908;2022-10-22T13:45:43;2.20;;;0.60;;
61096;SDS011;46977;50.936;6.908;2022-10-22T13:48:46;5.03;;;0.60;;
61096;SDS011;46977;50.936;6.908;2022-10-22T13:51:51;3.38;;;0.50;;
61096;SDS011;46977;50.936;6.908;2022-10-22T13:54:54;3.55;;;0.45;;
61096;SDS011;46977;50.936;6.908;2022-10-22T13:57:57;2.70;;;0.50;;
61096;SDS011;46977;50.936;6.908;2022-10-22T14:01:02;2.63;;;0.40;;
61096;SDS011;46977;50.936;6.908;2022-10-22T14:04:11;2.42;;;0.50;;
61096;SDS011;46977;50.936;6.908;2022-10-22T14:07:17;6.72;;;0.50;;
61096;SDS011;46977;50.936;6.908;2022-10-22T14:10:20;5.68;;;0.52;;
61096;SDS011;46977;50.936;6.908;2022-10-22T14:13:24;2.47;;;0.60;;
61096;SDS011;46977;50.936;6.908;2022-10-22T14:16:27;7.65;;;0.50;;
61096;SDS011;46977;50.936;6.908;2022-10-22T14:19:32;2.42;;;0.40;;
61096;SDS011;46977;50.936;6.908;2022-10-22T14:22:35;7.45;;;1.27;;
61096;SDS011;46977;50.936;6.908;2022-10-22T14:25:37;3.20;;;0.77;;
61096;SDS011;46977;50.936;6.908;2022-10-22T14:28:40;3.50;;;0.57;;
61096;SDS011;46977;50.936;6.908;2022-10-22T14:32:02;3.53;;;0.75;;
61096;SDS011;46977;50.936;6.908;2022-10-22T14:35:05;3.80;;;0.60;;
61096;SDS011;46977;50.936;6.908;2022-10-22T14:38:09;2.15;;;0.50;;
61096;SDS011;46977;50.936;6.908;2022-10-22T14:41:14;3.30;;;0.60;;
61096;SDS011;46977;50.936;6.908;2022-10-22T14:44:20;6.78;;;0.98;;
61096;SDS011;46977;50.936;6.908;2022-10-22T14:47:22;6.82;;;1.25;;
61096;SDS011;46977;50.936;6.908;2022-10-22T14:50:25;4.38;;;0.80;;
61096;SDS011;46977;50.936;6.908;2022-10-22T14:53:28;5.75;;;0.60;;
61096;SDS011;46977;50.936;6.908;2022-10-22T14:56:30;4.35;;;1.30;;
61096;SDS011;46977;50.936;6.908;2022-10-22T14:59:33;6.72;;;1.45;;
61096;SDS011;46977;50.936;6.908;2022-10-22T15:02:35;5.18;;;0.88;;
61096;SDS011;46977;50.936;6.908;2022-10-22T15:05:38;4.95;;;0.60;;
61096;SDS011;46977;50.936;6.908;2022-10-22T15:08:45;5.50;;;0.73;;
61096;SDS011;46977;50.936;6.908;2022-10-22T15:11:47;3.90;;;0.80;;
61096;SDS011;46977;50.936;6.908;2022-10-22T15:14:50;6.97;;;0.80;;
61096;SDS011;46977;50.936;6.908;2022-10-22T15:17:52;5.82;;;0.70;;
61096;SDS011;46977;50.936;6.908;2022-10-22T15:20:55;7.53;;;2.13;;
61096;SDS011;46977;50.936;6.908;2022-10-22T15:24:00;7.63;;;1.65;;
61096;SDS011;46977;50.936;6.908;2022-10-22T15:27:03;9.40;;;1.88;;
61096;SDS011;46977;50.936;6.908;2022-10-22T15:30:06;2.85;;;1.15;;
61096;SDS011;46977;50.936;6.908;2022-10-22T15:33:09;4.43;;;0.88;;
61096;SDS011;46977;50.936;6.908;2022-10-22T15:36:13;4.72;;;0.68;;
61096;SDS011;46977;50.936;6.908;2022-10-22T15:39:18;3.17;;;1.17;;
61096;SDS011;46977;50.936;6.908;2022-10-22T15:42:20;5.03;;;0.82;;
61096;SDS011;46977;50.936;6.908;2022-10-22T15:45:24;6.20;;;1.17;;
61096;SDS011;46977;50.936;6.908;2022-10-22T15:48:26;6.38;;;1.10;;
61096;SDS011;46977;50.936;6.908;2022-10-22T15:51:28;7.28;;;1.55;;
61096;SDS011;46977;50.936;6.908;2022-10-22T15:54:32;6.63;;;1.75;;
61096;SDS011;46977;50.936;6.908;2022-10-22T15:57:35;6.35;;;1.23;;
61096;SDS011;46977;50.936;6.908;2022-10-22T16:00:37;9.77;;;1.17;;
61096;SDS011;46977;50.936;6.908;2022-10-22T16:03:40;3.88;;;1.10;;
61096;SDS011;46977;50.936;6.908;2022-10-22T16:06:43;9.73;;;1.13;;
61096;SDS011;46977;50.936;6.908;2022-10-22T16:09:47;6.90;;;0.95;;
61096;SDS011;46977;50.936;6.908;2022-10-22T16:12:50;3.78;;;1.00;;
61096;SDS011;46977;50.936;6.908;2022-10-22T16:15:54;8.32;;;1.45;;
61096;SDS011;46977;50.936;6.908;2022-10-22T16:18:57;5.57;;;1.38;;
61096;SDS011;46977;50.936;6.908;2022-10-22T16:21:59;8.75;;;1.50;;
61096;SDS011;46977;50.936;6.908;2022-10-22T16:25:04;10.93;;;1.92;;
61096;SDS011;46977;50.936;6.908;2022-10-22T16:28:08;5.35;;;1.95;;
61096;SDS011;46977;50.936;6.908;2022-10-22T16:31:11;7.68;;;2.08;;
61096;SDS011;46977;50.936;6.908;2022-10-22T16:34:15;11.43;;;2.42;;
61096;SDS011;46977;50.936;6.908;2022-10-22T16:37:17;12.55;;;2.45;;
61096;SDS011;46977;50.936;6.908;2022-10-22T16:40:21;10.80;;;2.42;;
61096;SDS011;46977;50.936;6.908;2022-10-22T16:43:23;13.50;;;3.15;;
61096;SDS011;46977;50.936;6.908;2022-10-22T16:46:25;11.25;;;4.32;;
61096;SDS011;46977;50.936;6.908;2022-10-22T16:49:28;14.35;;;3.75;;
61096;SDS011;46977;50.936;6.908;2022-10-22T16:52:30;15.65;;;3.72;;
61096;SDS011;46977;50.936;6.908;2022-10-22T16:55:35;12.77;;;3.97;;
61096;SDS011;46977;50.936;6.908;2022-10-22T16:58:41;41.40;;;12.25;;
61096;SDS011;46977;50.936;6.908;2022-10-22T17:01:45;18.80;;;5.15;;
61096;SDS011;46977;50.936;6.908;2022-10-22T17:04:47;22.42;;;6.35;;
61096;SDS011;46977;50.936;6.908;2022-10-22T17:07:50;20.05;;;5.50;;
61096;SDS011;46977;50.936;6.908;2022-10-22T17:10:53;27.20;;;6.75;;
61096;SDS011;46977;50.936;6.908;2022-10-22T17:13:56;18.50;;;5.95;;
61096;SDS011;46977;50.936;6.908;2022-10-22T17:16:58;16.70;;;5.20;;
61096;SDS011;46977;50.936;6.908;2022-10-22T17:20:00;19.95;;;5.95;;
61096;SDS011;46977;50.936;6.908;2022-10-22T17:23:03;19.85;;;7.70;;
61096;SDS011;46977;50.936;6.908;2022-10-22T17:26:07;21.73;;;7.00;;
61096;SDS011;46977;50.936;6.908;2022-10-22T17:29:13;20.20;;;5.78;;
61096;SDS011;46977;50.936;6.908;2022-10-22T17:32:15;21.50;;;6.93;;
61096;SDS011;46977;50.936;6.908;2022-10-22T17:35:17;19.63;;;6.00;;
61096;SDS011;46977;50.936;6.908;2022-10-22T17:38:20;19.80;;;7.25;;
61096;SDS011;46977;50.936;6.908;2022-10-22T17:41:25;25.58;;;7.45;;
61096;SDS011;46977;50.936;6.908;2022-10-22T17:44:28;28.02;;;8.52;;
61096;SDS011;46977;50.936;6.908;2022-10-22T17:47:30;24.10;;;7.90;;
61096;SDS011;46977;50.936;6.908;2022-10-22T17:50:32;20.48;;;6.90;;
61096;SDS011;46977;50.936;6.908;2022-10-22T17:53:34;24.63;;;7.25;;
61096;SDS011;46977;50.936;6.908;2022-10-22T17:56:40;33.50;;;12.13;;
61096;SDS011;46977;50.936;6.908;2022-10-22T17:59:42;24.88;;;9.10;;
61096;SDS011;46977;50.936;6.908;2022-10-22T18:02:45;24.08;;;8.02;;
61096;SDS011;46977;50.936;6.908;2022-10-22T18:05:47;34.88;;;12.38;;
61096;SDS011;46977;50.936;6.908;2022-10-22T18:08:49;19.10;;;7.22;;
61096;SDS011;46977;50.936;6.908;2022-10-22T18:11:53;29.35;;;7.53;;
61096;SDS011;46977;50.936;6.908;2022-10-22T18:14:55;25.52;;;7.63;;
61096;SDS011;46977;50.936;6.908;2022-10-22T18:17:58;49.17;;;12.77;;
61096;SDS011;46977;50.936;6.908;2022-10-22T18:21:02;18.95;;;6.88;;
61096;SDS011;46977;50.936;6.908;2022-10-22T18:24:06;15.75;;;6.03;;
61096;SDS011;46977;50.936;6.908;2022-10-22T18:27:09;16.65;;;6.70;;
61096;SDS011;46977;50.936;6.908;2022-10-22T18:30:12;21.67;;;7.07;;
61096;SDS011;46977;50.936;6.908;2022-10-22T18:33:15;19.63;;;6.78;;
61096;SDS011;46977;50.936;6.908;2022-10-22T18:36:20;19.40;;;6.28;;
61096;SDS011;46977;50.936;6.908;2022-10-22T18:39:23;15.43;;;5.72;;
61096;SDS011;46977;50.936;6.908;2022-10-22T18:42:27;19.35;;;6.78;;
61096;SDS011;46977;50.936;6.908;2022-10-22T18:45:35;22.52;;;6.80;;
61096;SDS011;46977;50.936;6.908;2022-10-22T18:48:42;22.65;;;8.27;;
61096;SDS011;46977;50.936;6.908;2022-10-22T18:51:45;27.38;;;8.88;;
61096;SDS011;46977;50.936;6.908;2022-10-22T18:54:49;22.77;;;6.13;;
61096;SDS011;46977;50.936;6.908;2022-10-22T18:57:53;17.75;;;6.07;;
61096;SDS011;46977;50.936;6.908;2022-10-22T19:00:55;22.20;;;6.60;;
61096;SDS011;46977;50.936;6.908;2022-10-22T19:03:57;16.73;;;6.32;;
61096;SDS011;46977;50.936;6.908;2022-10-22T19:07:00;15.23;;;6.28;;
61096;SDS011;46977;50.936;6.908;2022-10-22T19:10:03;23.88;;;7.40;;
61096;SDS011;46977;50.936;6.908;2022-10-22T19:13:07;16.48;;;5.88;;
61096;SDS011;46977;50.936;6.908;2022-10-22T19:16:10;19.17;;;6.32;;
61096;SDS011;46977;50.936;6.908;2022-10-22T19:19:15;19.98;;;7.00;;
61096;SDS011;46977;50.936;6.908;2022-10-22T19:22:18;15.50;;;6.78;;
61096;SDS011;46977;50.936;6.908;2022-10-22T19:25:21;14.00;;;6.45;;
61096;SDS011;46977;50.936;6.908;2022-10-22T19:28:26;18.63;;;6.72;;
61096;SDS011;46977;50.936;6.908;2022-10-22T19:31:28;30.55;;;8.18;;
61096;SDS011;46977;50.936;6.908;2022-10-22T19:34:32;29.58;;;9.00;;
61096;SDS011;46977;50.936;6.908;2022-10-22T19:37:34;18.20;;;7.32;;
61096;SDS011;46977;50.936;6.908;2022-10-22T19:40:39;20.70;;;7.70;;
61096;SDS011;46977;50.936;6.908;2022-10-22T19:43:43;23.00;;;8.18;;
61096;SDS011;46977;50.936;6.908;2022-10-22T19:46:46;24.00;;;8.52;;
61096;SDS011;46977;50.936;6.908;2022-10-22T19:49:49;28.38;;;9.13;;
61096;SDS011;46977;50.936;6.908;2022-10-22T19:52:51;22.70;;;8.13;;
61096;SDS011;46977;50.936;6.908;2022-10-22T19:55:53;19.77;;;8.45;;